sensor_id;sensor_type;location;lat;lon;timestamp;P1;durP1;ratioP1;P2;durP2;ratioP2
5349;SDS011;2697;42.144;24.794;2023-09-18T00:02:06;7.90;;;3.07;;
5349;SDS011;2697;42.144;24.794;2023-09-18T00:04:31;8.50;;;2.80;;
5349;SDS011;2697;42.144;24.794;2023-09-18T00:06:56;10.73;;;3.70;;
5349;SDS011;2697;42.144;24.794;2023-09-18T00:09:22;5.77;;;3.10;;
5349;SDS011;2697;42.144;24.794;2023-09-18T00:11:47;7.00;;;2.97;;
5349;SDS011;2697;42.144;24.794;2023-09-18T00:14:13;7.13;;;3.40;;
5349;SDS011;2697;42.144;24.794;2023-09-18T00:16:38;8.13;;;3.70;;
5349;SDS011;2697;42.144;24.794;2023-09-18T00:19:04;6.53;;;3.80;;
5349;SDS011;2697;42.144;24.794;2023-09-18T00:21:31;3.93;;;2.83;;
5349;SDS011;2697;42.144;24.794;2023-09-18T00:23:57;3.60;;;2.83;;
5349;SDS011;2697;42.144;24.794;2023-09-18T00:26:25;5.57;;;2.90;;
5349;SDS011;2697;42.144;24.794;2023-09-18T00:28:50;11.67;;;5.83;;
5349;SDS011;2697;42.144;24.794;2023-09-18T00:31:15;5.60;;;2.80;;
5349;SDS011;2697;42.144;24.794;2023-09-18T00:33:41;23.13;;;3.40;;
5349;SDS011;2697;42.144;24.794;2023-09-18T00:36:06;11.13;;;4.00;;
5349;SDS011;2697;42.144;24.794;2023-09-18T00:38:32;8.63;;;4.13;;
5349;SDS011;2697;42.144;24.794;2023-09-18T00:40:57;5.53;;;3.40;;
5349;SDS011;2697;42.144;24.794;2023-09-18T00:43:22;12.23;;;3.47;;
5349;SDS011;2697;42.144;24.794;2023-09-18T00:45:48;5.23;;;4.07;;
5349;SDS011;2697;42.144;24.794;2023-09-18T00:48:14;7.73;;;3.80;;
5349;SDS011;2697;42.144;24.794;2023-09-18T00:50:40;7.17;;;4.07;;
5349;SDS011;2697;42.144;24.794;2023-09-18T00:53:07;9.20;;;3.77;;
5349;SDS011;2697;42.144;24.794;2023-09-18T00:55:33;11.50;;;4.13;;
5349;SDS011;2697;42.144;24.794;2023-09-18T00:58:02;11.83;;;3.40;;
5349;SDS011;2697;42.144;24.794;2023-09-18T01:00:28;10.83;;;3.40;;
5349;SDS011;2697;42.144;24.794;2023-09-18T01:02:54;9.53;;;4.30;;
5349;SDS011;2697;42.144;24.794;2023-09-18T01:05:20;7.40;;;2.90;;
5349;SDS011;2697;42.144;24.794;2023-09-18T01:07:46;8.90;;;4.00;;
5349;SDS011;2697;42.144;24.794;2023-09-18T01:10:12;11.40;;;3.77;;
5349;SDS011;2697;42.144;24.794;2023-09-18T01:12:46;13.40;;;4.43;;
5349;SDS011;2697;42.144;24.794;2023-09-18T01:18:19;5.57;;;3.23;;
5349;SDS011;2697;42.144;24.794;2023-09-18T01:20:44;6.20;;;4.30;;
5349;SDS011;2697;42.144;24.794;2023-09-18T01:23:10;9.53;;;3.77;;
5349;SDS011;2697;42.144;24.794;2023-09-18T01:25:36;18.10;;;4.40;;
5349;SDS011;2697;42.144;24.794;2023-09-18T01:28:02;14.03;;;4.53;;
5349;SDS011;2697;42.144;24.794;2023-09-18T01:30:28;11.03;;;3.57;;
5349;SDS011;2697;42.144;24.794;2023-09-18T01:32:54;6.23;;;3.30;;
5349;SDS011;2697;42.144;24.794;2023-09-18T01:35:22;9.70;;;3.30;;
5349;SDS011;2697;42.144;24.794;2023-09-18T01:37:54;16.40;;;3.70;;
5349;SDS011;2697;42.144;24.794;2023-09-18T01:40:24;9.67;;;3.70;;
5349;SDS011;2697;42.144;24.794;2023-09-18T01:42:51;4.67;;;3.03;;
5349;SDS011;2697;42.144;24.794;2023-09-18T01:45:17;7.10;;;3.47;;
5349;SDS011;2697;42.144;24.794;2023-09-18T01:47:44;10.00;;;4.40;;
5349;SDS011;2697;42.144;24.794;2023-09-18T01:50:11;6.57;;;3.27;;
5349;SDS011;2697;42.144;24.794;2023-09-18T01:52:36;6.03;;;3.03;;
5349;SDS011;2697;42.144;24.794;2023-09-18T01:55:02;8.33;;;4.17;;
5349;SDS011;2697;42.144;24.794;2023-09-18T01:57:31;14.47;;;4.10;;
5349;SDS011;2697;42.144;24.794;2023-09-18T01:59:56;12.27;;;4.37;;
5349;SDS011;2697;42.144;24.794;2023-09-18T02:02:21;18.10;;;3.50;;
5349;SDS011;2697;42.144;24.794;2023-09-18T02:04:47;8.20;;;2.97;;
5349;SDS011;2697;42.144;24.794;2023-09-18T02:07:12;6.30;;;3.60;;
5349;SDS011;2697;42.144;24.794;2023-09-18T02:09:38;10.70;;;3.63;;
5349;SDS011;2697;42.144;24.794;2023-09-18T02:12:04;11.60;;;4.20;;
5349;SDS011;2697;42.144;24.794;2023-09-18T02:14:29;8.10;;;4.07;;
5349;SDS011;2697;42.144;24.794;2023-09-18T02:16:56;8.23;;;3.60;;
5349;SDS011;2697;42.144;24.794;2023-09-18T02:19:21;8.20;;;3.90;;
5349;SDS011;2697;42.144;24.794;2023-09-18T02:21:48;4.27;;;3.30;;
5349;SDS011;2697;42.144;24.794;2023-09-18T02:24:13;17.30;;;4.70;;
5349;SDS011;2697;42.144;24.794;2023-09-18T02:26:39;9.10;;;4.33;;
5349;SDS011;2697;42.144;24.794;2023-09-18T02:29:07;8.70;;;3.37;;
5349;SDS011;2697;42.144;24.794;2023-09-18T02:31:38;5.47;;;3.30;;
5349;SDS011;2697;42.144;24.794;2023-09-18T02:34:04;13.07;;;3.83;;
5349;SDS011;2697;42.144;24.794;2023-09-18T02:36:29;10.43;;;3.60;;
5349;SDS011;2697;42.144;24.794;2023-09-18T02:38:55;8.90;;;4.90;;
5349;SDS011;2697;42.144;24.794;2023-09-18T02:41:20;9.63;;;3.33;;
5349;SDS011;2697;42.144;24.794;2023-09-18T02:43:46;14.30;;;4.20;;
5349;SDS011;2697;42.144;24.794;2023-09-18T02:46:11;6.53;;;3.20;;
5349;SDS011;2697;42.144;24.794;2023-09-18T02:48:36;10.93;;;4.60;;
5349;SDS011;2697;42.144;24.794;2023-09-18T02:51:02;19.43;;;5.50;;
5349;SDS011;2697;42.144;24.794;2023-09-18T02:53:28;15.90;;;4.40;;
5349;SDS011;2697;42.144;24.794;2023-09-18T02:55:54;4.87;;;3.20;;
5349;SDS011;2697;42.144;24.794;2023-09-18T02:58:21;8.77;;;3.80;;
5349;SDS011;2697;42.144;24.794;2023-09-18T03:00:48;12.00;;;4.40;;
5349;SDS011;2697;42.144;24.794;2023-09-18T03:03:15;6.17;;;3.07;;
5349;SDS011;2697;42.144;24.794;2023-09-18T03:05:41;15.27;;;3.50;;
5349;SDS011;2697;42.144;24.794;2023-09-18T03:08:08;14.23;;;4.20;;
5349;SDS011;2697;42.144;24.794;2023-09-18T03:10:40;9.97;;;3.63;;
5349;SDS011;2697;42.144;24.794;2023-09-18T03:13:07;9.17;;;4.13;;
5349;SDS011;2697;42.144;24.794;2023-09-18T03:15:34;10.83;;;3.70;;
5349;SDS011;2697;42.144;24.794;2023-09-18T03:18:00;8.53;;;3.37;;
5349;SDS011;2697;42.144;24.794;2023-09-18T03:20:27;8.03;;;3.70;;
5349;SDS011;2697;42.144;24.794;2023-09-18T03:22:57;8.63;;;3.73;;
5349;SDS011;2697;42.144;24.794;2023-09-18T03:25:24;18.27;;;3.80;;
5349;SDS011;2697;42.144;24.794;2023-09-18T03:27:53;5.47;;;3.10;;
5349;SDS011;2697;42.144;24.794;2023-09-18T03:30:20;8.23;;;4.37;;
5349;SDS011;2697;42.144;24.794;2023-09-18T03:32:48;9.47;;;3.97;;
5349;SDS011;2697;42.144;24.794;2023-09-18T03:35:14;7.20;;;4.30;;
5349;SDS011;2697;42.144;24.794;2023-09-18T03:37:45;5.97;;;4.10;;
5349;SDS011;2697;42.144;24.794;2023-09-18T03:40:15;4.90;;;3.57;;
5349;SDS011;2697;42.144;24.794;2023-09-18T03:42:45;12.57;;;4.20;;
5349;SDS011;2697;42.144;24.794;2023-09-18T03:45:11;17.13;;;3.70;;
5349;SDS011;2697;42.144;24.794;2023-09-18T03:47:37;10.50;;;3.57;;
5349;SDS011;2697;42.144;24.794;2023-09-18T03:50:04;20.13;;;4.13;;
5349;SDS011;2697;42.144;24.794;2023-09-18T03:52:34;27.57;;;4.87;;
5349;SDS011;2697;42.144;24.794;2023-09-18T03:55:00;5.90;;;3.30;;
5349;SDS011;2697;42.144;24.794;2023-09-18T03:57:25;16.03;;;4.03;;
5349;SDS011;2697;42.144;24.794;2023-09-18T03:59:51;9.83;;;4.60;;
5349;SDS011;2697;42.144;24.794;2023-09-18T04:02:16;14.20;;;4.70;;
5349;SDS011;2697;42.144;24.794;2023-09-18T04:04:41;17.77;;;4.13;;
5349;SDS011;2697;42.144;24.794;2023-09-18T04:07:08;13.13;;;4.30;;
5349;SDS011;2697;42.144;24.794;2023-09-18T04:09:33;9.03;;;3.70;;
5349;SDS011;2697;42.144;24.794;2023-09-18T04:12:02;12.80;;;3.63;;
5349;SDS011;2697;42.144;24.794;2023-09-18T04:14:31;14.07;;;3.80;;
5349;SDS011;2697;42.144;24.794;2023-09-18T04:16:56;8.37;;;4.20;;
5349;SDS011;2697;42.144;24.794;2023-09-18T04:19:22;16.03;;;4.10;;
5349;SDS011;2697;42.144;24.794;2023-09-18T04:21:47;20.67;;;4.27;;
5349;SDS011;2697;42.144;24.794;2023-09-18T04:24:13;9.23;;;3.67;;
5349;SDS011;2697;42.144;24.794;2023-09-18T04:26:38;7.97;;;4.20;;
5349;SDS011;2697;42.144;24.794;2023-09-18T04:29:04;17.10;;;5.13;;
5349;SDS011;2697;42.144;24.794;2023-09-18T04:31:30;9.47;;;3.80;;
5349;SDS011;2697;42.144;24.794;2023-09-18T04:33:56;25.40;;;4.97;;
5349;SDS011;2697;42.144;24.794;2023-09-18T04:36:21;24.87;;;4.10;;
5349;SDS011;2697;42.144;24.794;2023-09-18T04:38:46;9.80;;;4.30;;
5349;SDS011;2697;42.144;24.794;2023-09-18T04:41:13;12.10;;;4.03;;
5349;SDS011;2697;42.144;24.794;2023-09-18T04:43:39;6.50;;;4.77;;
5349;SDS011;2697;42.144;24.794;2023-09-18T04:46:05;44.20;;;6.00;;
5349;SDS011;2697;42.144;24.794;2023-09-18T04:48:31;17.63;;;4.33;;
5349;SDS011;2697;42.144;24.794;2023-09-18T04:50:57;40.90;;;4.67;;
5349;SDS011;2697;42.144;24.794;2023-09-18T04:53:23;14.63;;;3.70;;
5349;SDS011;2697;42.144;24.794;2023-09-18T04:55:49;9.67;;;4.30;;
5349;SDS011;2697;42.144;24.794;2023-09-18T04:58:15;16.83;;;4.77;;
5349;SDS011;2697;42.144;24.794;2023-09-18T05:00:41;29.57;;;5.30;;
5349;SDS011;2697;42.144;24.794;2023-09-18T05:03:07;9.67;;;4.27;;
5349;SDS011;2697;42.144;24.794;2023-09-18T05:05:33;36.50;;;5.93;;
5349;SDS011;2697;42.144;24.794;2023-09-18T05:08:00;18.07;;;4.07;;
5349;SDS011;2697;42.144;24.794;2023-09-18T05:10:36;29.73;;;5.50;;
5349;SDS011;2697;42.144;24.794;2023-09-18T05:13:02;21.87;;;4.97;;
5349;SDS011;2697;42.144;24.794;2023-09-18T05:15:27;15.93;;;4.50;;
5349;SDS011;2697;42.144;24.794;2023-09-18T05:17:57;10.73;;;5.07;;
5349;SDS011;2697;42.144;24.794;2023-09-18T05:20:24;12.73;;;7.00;;
5349;SDS011;2697;42.144;24.794;2023-09-18T05:22:54;13.03;;;3.60;;
5349;SDS011;2697;42.144;24.794;2023-09-18T05:25:23;14.07;;;4.07;;
5349;SDS011;2697;42.144;24.794;2023-09-18T05:27:52;20.73;;;4.33;;
5349;SDS011;2697;42.144;24.794;2023-09-18T05:30:24;6.30;;;3.53;;
5349;SDS011;2697;42.144;24.794;2023-09-18T05:33:08;23.50;;;3.93;;
5349;SDS011;2697;42.144;24.794;2023-09-18T05:35:34;25.33;;;4.87;;
5349;SDS011;2697;42.144;24.794;2023-09-18T05:38:04;14.03;;;3.50;;
5349;SDS011;2697;42.144;24.794;2023-09-18T05:40:30;11.73;;;3.67;;
5349;SDS011;2697;42.144;24.794;2023-09-18T05:42:55;15.73;;;4.33;;
5349;SDS011;2697;42.144;24.794;2023-09-18T05:45:21;14.43;;;4.27;;
5349;SDS011;2697;42.144;24.794;2023-09-18T05:47:47;14.63;;;4.03;;
5349;SDS011;2697;42.144;24.794;2023-09-18T05:50:13;13.87;;;3.30;;
5349;SDS011;2697;42.144;24.794;2023-09-18T05:52:43;13.50;;;3.60;;
5349;SDS011;2697;42.144;24.794;2023-09-18T05:55:09;8.77;;;2.97;;
5349;SDS011;2697;42.144;24.794;2023-09-18T05:57:35;12.30;;;2.93;;
5349;SDS011;2697;42.144;24.794;2023-09-18T06:00:01;13.77;;;4.17;;
5349;SDS011;2697;42.144;24.794;2023-09-18T06:02:27;8.43;;;3.93;;
5349;SDS011;2697;42.144;24.794;2023-09-18T06:04:56;18.20;;;5.30;;
5349;SDS011;2697;42.144;24.794;2023-09-18T06:07:25;5.90;;;3.43;;
5349;SDS011;2697;42.144;24.794;2023-09-18T06:09:52;7.60;;;3.70;;
5349;SDS011;2697;42.144;24.794;2023-09-18T06:12:17;16.10;;;4.17;;
5349;SDS011;2697;42.144;24.794;2023-09-18T06:14:44;12.23;;;3.80;;
5349;SDS011;2697;42.144;24.794;2023-09-18T06:17:11;7.27;;;2.97;;
5349;SDS011;2697;42.144;24.794;2023-09-18T06:19:37;5.40;;;2.80;;
5349;SDS011;2697;42.144;24.794;2023-09-18T06:22:02;9.40;;;2.80;;
5349;SDS011;2697;42.144;24.794;2023-09-18T06:24:28;16.30;;;3.60;;
5349;SDS011;2697;42.144;24.794;2023-09-18T06:26:53;9.80;;;3.70;;
5349;SDS011;2697;42.144;24.794;2023-09-18T06:29:19;7.90;;;3.40;;
5349;SDS011;2697;42.144;24.794;2023-09-18T06:31:45;6.83;;;3.03;;
5349;SDS011;2697;42.144;24.794;2023-09-18T06:34:11;16.43;;;2.40;;
5349;SDS011;2697;42.144;24.794;2023-09-18T06:36:36;7.33;;;2.93;;
5349;SDS011;2697;42.144;24.794;2023-09-18T06:39:02;6.23;;;3.40;;
5349;SDS011;2697;42.144;24.794;2023-09-18T06:41:27;8.73;;;3.90;;
5349;SDS011;2697;42.144;24.794;2023-09-18T06:43:53;8.63;;;3.00;;
5349;SDS011;2697;42.144;24.794;2023-09-18T06:46:18;8.20;;;3.13;;
5349;SDS011;2697;42.144;24.794;2023-09-18T06:48:44;10.63;;;2.90;;
5349;SDS011;2697;42.144;24.794;2023-09-18T06:51:10;5.57;;;3.13;;
5349;SDS011;2697;42.144;24.794;2023-09-18T06:53:36;20.80;;;3.40;;
5349;SDS011;2697;42.144;24.794;2023-09-18T06:56:01;13.17;;;3.23;;
5349;SDS011;2697;42.144;24.794;2023-09-18T06:58:27;13.43;;;2.97;;
5349;SDS011;2697;42.144;24.794;2023-09-18T07:00:52;5.37;;;2.70;;
5349;SDS011;2697;42.144;24.794;2023-09-18T07:03:17;5.13;;;2.50;;
5349;SDS011;2697;42.144;24.794;2023-09-18T07:05:43;3.03;;;2.30;;
5349;SDS011;2697;42.144;24.794;2023-09-18T07:08:08;12.40;;;3.50;;
5349;SDS011;2697;42.144;24.794;2023-09-18T07:10:36;6.73;;;3.30;;
5349;SDS011;2697;42.144;24.794;2023-09-18T07:13:03;10.50;;;2.80;;
5349;SDS011;2697;42.144;24.794;2023-09-18T07:15:28;3.90;;;2.20;;
5349;SDS011;2697;42.144;24.794;2023-09-18T07:17:54;12.47;;;3.10;;
5349;SDS011;2697;42.144;24.794;2023-09-18T07:20:19;9.50;;;2.90;;
5349;SDS011;2697;42.144;24.794;2023-09-18T07:22:47;4.83;;;2.40;;
5349;SDS011;2697;42.144;24.794;2023-09-18T07:25:13;4.50;;;2.10;;
5349;SDS011;2697;42.144;24.794;2023-09-18T07:27:39;5.63;;;2.43;;
5349;SDS011;2697;42.144;24.794;2023-09-18T07:30:09;3.70;;;2.40;;
5349;SDS011;2697;42.144;24.794;2023-09-18T07:32:35;8.07;;;2.83;;
5349;SDS011;2697;42.144;24.794;2023-09-18T07:35:01;5.70;;;2.50;;
5349;SDS011;2697;42.144;24.794;2023-09-18T07:37:26;4.53;;;2.63;;
5349;SDS011;2697;42.144;24.794;2023-09-18T07:39:52;6.13;;;2.60;;
5349;SDS011;2697;42.144;24.794;2023-09-18T07:42:18;6.30;;;2.87;;
5349;SDS011;2697;42.144;24.794;2023-09-18T07:44:43;9.00;;;2.97;;
5349;SDS011;2697;42.144;24.794;2023-09-18T07:47:09;6.70;;;2.90;;
5349;SDS011;2697;42.144;24.794;2023-09-18T07:49:34;11.10;;;2.73;;
5349;SDS011;2697;42.144;24.794;2023-09-18T07:52:00;9.00;;;2.53;;
5349;SDS011;2697;42.144;24.794;2023-09-18T07:54:25;8.93;;;2.40;;
5349;SDS011;2697;42.144;24.794;2023-09-18T07:56:50;9.97;;;2.93;;
5349;SDS011;2697;42.144;24.794;2023-09-18T07:59:16;6.93;;;3.03;;
5349;SDS011;2697;42.144;24.794;2023-09-18T08:01:42;4.10;;;2.43;;
5349;SDS011;2697;42.144;24.794;2023-09-18T08:04:07;7.33;;;2.83;;
5349;SDS011;2697;42.144;24.794;2023-09-18T08:06:32;14.40;;;2.37;;
5349;SDS011;2697;42.144;24.794;2023-09-18T08:08:58;6.40;;;3.00;;
5349;SDS011;2697;42.144;24.794;2023-09-18T08:11:23;6.70;;;2.30;;
5349;SDS011;2697;42.144;24.794;2023-09-18T08:13:48;7.30;;;2.13;;
5349;SDS011;2697;42.144;24.794;2023-09-18T08:16:14;5.27;;;2.73;;
5349;SDS011;2697;42.144;24.794;2023-09-18T08:18:39;3.63;;;2.13;;
5349;SDS011;2697;42.144;24.794;2023-09-18T08:21:06;4.97;;;2.10;;
5349;SDS011;2697;42.144;24.794;2023-09-18T08:23:34;10.20;;;3.40;;
5349;SDS011;2697;42.144;24.794;2023-09-18T08:26:03;14.43;;;4.07;;
5349;SDS011;2697;42.144;24.794;2023-09-18T08:28:29;12.03;;;3.07;;
5349;SDS011;2697;42.144;24.794;2023-09-18T08:30:54;5.50;;;2.53;;
5349;SDS011;2697;42.144;24.794;2023-09-18T08:33:20;5.80;;;2.40;;
5349;SDS011;2697;42.144;24.794;2023-09-18T08:35:45;5.60;;;2.27;;
5349;SDS011;2697;42.144;24.794;2023-09-18T08:38:11;7.07;;;2.30;;
5349;SDS011;2697;42.144;24.794;2023-09-18T08:40:39;7.20;;;2.60;;
5349;SDS011;2697;42.144;24.794;2023-09-18T08:43:06;8.70;;;3.00;;
5349;SDS011;2697;42.144;24.794;2023-09-18T08:45:38;11.97;;;2.87;;
5349;SDS011;2697;42.144;24.794;2023-09-18T08:48:15;6.03;;;2.43;;
5349;SDS011;2697;42.144;24.794;2023-09-18T08:50:41;5.17;;;2.50;;
5349;SDS011;2697;42.144;24.794;2023-09-18T08:53:07;8.10;;;2.47;;
5349;SDS011;2697;42.144;24.794;2023-09-18T08:55:33;7.70;;;2.90;;
5349;SDS011;2697;42.144;24.794;2023-09-18T08:57:59;3.17;;;2.60;;
5349;SDS011;2697;42.144;24.794;2023-09-18T09:00:25;6.43;;;2.60;;
5349;SDS011;2697;42.144;24.794;2023-09-18T09:02:51;3.30;;;2.30;;
5349;SDS011;2697;42.144;24.794;2023-09-18T09:05:19;2.83;;;2.27;;
5349;SDS011;2697;42.144;24.794;2023-09-18T09:07:48;6.37;;;2.23;;
5349;SDS011;2697;42.144;24.794;2023-09-18T09:10:15;10.63;;;2.80;;
5349;SDS011;2697;42.144;24.794;2023-09-18T09:12:47;17.13;;;2.30;;
5349;SDS011;2697;42.144;24.794;2023-09-18T09:15:24;4.73;;;2.40;;
5349;SDS011;2697;42.144;24.794;2023-09-18T09:17:52;4.40;;;2.73;;
5349;SDS011;2697;42.144;24.794;2023-09-18T09:20:26;5.80;;;2.57;;
5349;SDS011;2697;42.144;24.794;2023-09-18T09:22:55;10.90;;;3.00;;
5349;SDS011;2697;42.144;24.794;2023-09-18T09:25:27;5.70;;;1.93;;
5349;SDS011;2697;42.144;24.794;2023-09-18T09:27:56;4.27;;;2.13;;
5349;SDS011;2697;42.144;24.794;2023-09-18T09:30:26;6.83;;;3.00;;
5349;SDS011;2697;42.144;24.794;2023-09-18T09:32:54;6.30;;;2.73;;
5349;SDS011;2697;42.144;24.794;2023-09-18T09:35:27;3.70;;;2.53;;
5349;SDS011;2697;42.144;24.794;2023-09-18T09:37:55;6.50;;;2.33;;
5349;SDS011;2697;42.144;24.794;2023-09-18T09:40:26;7.63;;;2.03;;
5349;SDS011;2697;42.144;24.794;2023-09-18T09:42:55;2.60;;;2.10;;
5349;SDS011;2697;42.144;24.794;2023-09-18T09:45:30;7.67;;;2.63;;
5349;SDS011;2697;42.144;24.794;2023-09-18T09:48:00;3.07;;;2.00;;
5349;SDS011;2697;42.144;24.794;2023-09-18T09:50:27;7.13;;;2.30;;
5349;SDS011;2697;42.144;24.794;2023-09-18T09:52:54;4.97;;;3.13;;
5349;SDS011;2697;42.144;24.794;2023-09-18T09:57:49;4.40;;;2.90;;
5349;SDS011;2697;42.144;24.794;2023-09-18T10:00:19;4.30;;;2.80;;
5349;SDS011;2697;42.144;24.794;2023-09-18T10:03:07;7.83;;;3.10;;
5349;SDS011;2697;42.144;24.794;2023-09-18T10:05:37;3.93;;;2.47;;
5349;SDS011;2697;42.144;24.794;2023-09-18T10:08:08;4.20;;;2.23;;
5349;SDS011;2697;42.144;24.794;2023-09-18T10:10:40;14.17;;;2.33;;
5349;SDS011;2697;42.144;24.794;2023-09-18T10:13:20;4.50;;;2.67;;
5349;SDS011;2697;42.144;24.794;2023-09-18T10:15:52;4.53;;;2.50;;
5349;SDS011;2697;42.144;24.794;2023-09-18T10:20:56;7.03;;;1.63;;
5349;SDS011;2697;42.144;24.794;2023-09-18T10:23:38;3.27;;;2.20;;
5349;SDS011;2697;42.144;24.794;2023-09-18T10:26:06;3.60;;;2.20;;
5349;SDS011;2697;42.144;24.794;2023-09-18T10:28:32;8.40;;;3.77;;
5349;SDS011;2697;42.144;24.794;2023-09-18T10:30:59;4.60;;;2.30;;
5349;SDS011;2697;42.144;24.794;2023-09-18T10:33:26;3.10;;;2.30;;
5349;SDS011;2697;42.144;24.794;2023-09-18T10:35:53;4.47;;;2.50;;
5349;SDS011;2697;42.144;24.794;2023-09-18T10:38:18;6.13;;;2.40;;
5349;SDS011;2697;42.144;24.794;2023-09-18T10:40:45;5.43;;;3.80;;
5349;SDS011;2697;42.144;24.794;2023-09-18T10:43:12;3.73;;;2.27;;
5349;SDS011;2697;42.144;24.794;2023-09-18T10:45:41;9.30;;;2.80;;
5349;SDS011;2697;42.144;24.794;2023-09-18T10:48:09;5.57;;;2.13;;
5349;SDS011;2697;42.144;24.794;2023-09-18T10:50:38;4.23;;;2.30;;
5349;SDS011;2697;42.144;24.794;2023-09-18T10:53:05;8.90;;;3.13;;
5349;SDS011;2697;42.144;24.794;2023-09-18T10:55:31;17.77;;;2.70;;
5349;SDS011;2697;42.144;24.794;2023-09-18T10:57:59;5.33;;;2.20;;
5349;SDS011;2697;42.144;24.794;2023-09-18T11:00:25;4.57;;;2.60;;
5349;SDS011;2697;42.144;24.794;2023-09-18T11:02:52;8.00;;;2.77;;
5349;SDS011;2697;42.144;24.794;2023-09-18T11:05:34;3.07;;;2.00;;
5349;SDS011;2697;42.144;24.794;2023-09-18T11:10:54;4.63;;;2.20;;
5349;SDS011;2697;42.144;24.794;2023-09-18T11:13:27;5.30;;;2.27;;
5349;SDS011;2697;42.144;24.794;2023-09-18T11:15:58;4.20;;;2.47;;
5349;SDS011;2697;42.144;24.794;2023-09-18T11:18:25;3.80;;;2.50;;
5349;SDS011;2697;42.144;24.794;2023-09-18T11:21:06;2.30;;;1.93;;
5349;SDS011;2697;42.144;24.794;2023-09-18T11:23:36;3.03;;;2.20;;
5349;SDS011;2697;42.144;24.794;2023-09-18T11:26:09;7.50;;;2.37;;
5349;SDS011;2697;42.144;24.794;2023-09-18T11:28:36;7.13;;;2.60;;
5349;SDS011;2697;42.144;24.794;2023-09-18T11:31:02;6.03;;;2.23;;
5349;SDS011;2697;42.144;24.794;2023-09-18T11:33:35;4.03;;;3.03;;
5349;SDS011;2697;42.144;24.794;2023-09-18T11:36:03;4.60;;;2.90;;
5349;SDS011;2697;42.144;24.794;2023-09-18T11:38:55;7.20;;;2.57;;
5349;SDS011;2697;42.144;24.794;2023-09-18T11:41:26;11.23;;;2.40;;
5349;SDS011;2697;42.144;24.794;2023-09-18T11:46:47;2.27;;;1.77;;
5349;SDS011;2697;42.144;24.794;2023-09-18T11:49:23;6.20;;;2.37;;
5349;SDS011;2697;42.144;24.794;2023-09-18T11:51:52;8.03;;;2.20;;
5349;SDS011;2697;42.144;24.794;2023-09-18T11:54:19;6.40;;;2.13;;
5349;SDS011;2697;42.144;24.794;2023-09-18T11:56:46;6.70;;;2.53;;
5349;SDS011;2697;42.144;24.794;2023-09-18T11:59:11;5.53;;;2.80;;
5349;SDS011;2697;42.144;24.794;2023-09-18T12:01:38;5.53;;;1.97;;
5349;SDS011;2697;42.144;24.794;2023-09-18T12:04:11;3.77;;;2.53;;
5349;SDS011;2697;42.144;24.794;2023-09-18T12:06:38;8.57;;;2.60;;
5349;SDS011;2697;42.144;24.794;2023-09-18T12:09:05;2.10;;;1.90;;
5349;SDS011;2697;42.144;24.794;2023-09-18T12:11:32;5.77;;;2.10;;
5349;SDS011;2697;42.144;24.794;2023-09-18T12:13:59;8.00;;;2.40;;
5349;SDS011;2697;42.144;24.794;2023-09-18T12:16:25;11.23;;;2.37;;
5349;SDS011;2697;42.144;24.794;2023-09-18T12:18:50;11.47;;;3.23;;
5349;SDS011;2697;42.144;24.794;2023-09-18T12:21:16;2.63;;;2.03;;
5349;SDS011;2697;42.144;24.794;2023-09-18T12:23:43;5.00;;;2.27;;
5349;SDS011;2697;42.144;24.794;2023-09-18T12:26:11;5.50;;;2.77;;
5349;SDS011;2697;42.144;24.794;2023-09-18T12:28:40;3.63;;;2.03;;
5349;SDS011;2697;42.144;24.794;2023-09-18T12:31:14;3.10;;;2.10;;
5349;SDS011;2697;42.144;24.794;2023-09-18T12:33:40;4.97;;;2.40;;
5349;SDS011;2697;42.144;24.794;2023-09-18T12:36:09;2.70;;;2.27;;
5349;SDS011;2697;42.144;24.794;2023-09-18T12:38:34;15.23;;;2.40;;
5349;SDS011;2697;42.144;24.794;2023-09-18T12:41:02;15.00;;;2.70;;
5349;SDS011;2697;42.144;24.794;2023-09-18T12:43:38;4.60;;;1.80;;
5349;SDS011;2697;42.144;24.794;2023-09-18T12:46:05;9.80;;;2.80;;
5349;SDS011;2697;42.144;24.794;2023-09-18T12:48:32;3.93;;;2.23;;
5349;SDS011;2697;42.144;24.794;2023-09-18T12:51:02;6.67;;;2.80;;
5349;SDS011;2697;42.144;24.794;2023-09-18T12:53:28;7.17;;;2.70;;
5349;SDS011;2697;42.144;24.794;2023-09-18T12:55:54;25.03;;;3.33;;
5349;SDS011;2697;42.144;24.794;2023-09-18T12:58:29;4.53;;;2.33;;
5349;SDS011;2697;42.144;24.794;2023-09-18T13:00:54;4.50;;;2.30;;
5349;SDS011;2697;42.144;24.794;2023-09-18T13:03:20;3.20;;;2.13;;
5349;SDS011;2697;42.144;24.794;2023-09-18T13:05:45;5.67;;;3.00;;
5349;SDS011;2697;42.144;24.794;2023-09-18T13:08:12;3.27;;;2.23;;
5349;SDS011;2697;42.144;24.794;2023-09-18T13:10:44;4.00;;;2.30;;
5349;SDS011;2697;42.144;24.794;2023-09-18T13:13:17;4.30;;;2.40;;
5349;SDS011;2697;42.144;24.794;2023-09-18T13:15:43;4.90;;;2.80;;
5349;SDS011;2697;42.144;24.794;2023-09-18T13:18:12;6.27;;;2.50;;
5349;SDS011;2697;42.144;24.794;2023-09-18T13:20:38;4.00;;;2.43;;
5349;SDS011;2697;42.144;24.794;2023-09-18T13:23:05;5.27;;;2.90;;
5349;SDS011;2697;42.144;24.794;2023-09-18T13:25:49;3.33;;;2.80;;
5349;SDS011;2697;42.144;24.794;2023-09-18T13:28:14;4.83;;;3.47;;
5349;SDS011;2697;42.144;24.794;2023-09-18T13:30:40;4.37;;;2.47;;
5349;SDS011;2697;42.144;24.794;2023-09-18T13:33:10;2.00;;;1.80;;
5349;SDS011;2697;42.144;24.794;2023-09-18T13:35:41;15.40;;;2.63;;
5349;SDS011;2697;42.144;24.794;2023-09-18T13:38:09;16.33;;;2.97;;
5349;SDS011;2697;42.144;24.794;2023-09-18T13:40:39;7.60;;;2.43;;
5349;SDS011;2697;42.144;24.794;2023-09-18T13:43:05;8.20;;;2.57;;
5349;SDS011;2697;42.144;24.794;2023-09-18T13:45:32;18.13;;;2.77;;
5349;SDS011;2697;42.144;24.794;2023-09-18T13:48:00;7.57;;;2.83;;
5349;SDS011;2697;42.144;24.794;2023-09-18T13:50:25;4.10;;;2.17;;
5349;SDS011;2697;42.144;24.794;2023-09-18T13:52:51;5.60;;;2.20;;
5349;SDS011;2697;42.144;24.794;2023-09-18T13:55:16;14.00;;;2.80;;
5349;SDS011;2697;42.144;24.794;2023-09-18T13:57:42;13.83;;;1.97;;
5349;SDS011;2697;42.144;24.794;2023-09-18T14:00:07;7.87;;;2.07;;
5349;SDS011;2697;42.144;24.794;2023-09-18T14:02:35;8.60;;;1.90;;
5349;SDS011;2697;42.144;24.794;2023-09-18T14:05:01;3.90;;;2.50;;
5349;SDS011;2697;42.144;24.794;2023-09-18T14:07:28;2.53;;;1.90;;
5349;SDS011;2697;42.144;24.794;2023-09-18T14:09:54;5.40;;;2.50;;
5349;SDS011;2697;42.144;24.794;2023-09-18T14:12:19;2.50;;;2.30;;
5349;SDS011;2697;42.144;24.794;2023-09-18T14:14:45;4.33;;;2.67;;
5349;SDS011;2697;42.144;24.794;2023-09-18T14:17:11;3.00;;;2.50;;
5349;SDS011;2697;42.144;24.794;2023-09-18T14:19:37;5.07;;;3.13;;
5349;SDS011;2697;42.144;24.794;2023-09-18T14:22:05;5.97;;;2.40;;
5349;SDS011;2697;42.144;24.794;2023-09-18T14:24:31;12.17;;;2.73;;
5349;SDS011;2697;42.144;24.794;2023-09-18T14:26:59;16.40;;;3.83;;
5349;SDS011;2697;42.144;24.794;2023-09-18T14:29:29;12.90;;;2.87;;
5349;SDS011;2697;42.144;24.794;2023-09-18T14:31:58;6.43;;;2.50;;
5349;SDS011;2697;42.144;24.794;2023-09-18T14:34:26;3.67;;;2.77;;
5349;SDS011;2697;42.144;24.794;2023-09-18T14:36:51;4.53;;;2.47;;
5349;SDS011;2697;42.144;24.794;2023-09-18T14:39:17;6.97;;;3.33;;
5349;SDS011;2697;42.144;24.794;2023-09-18T14:41:42;2.47;;;2.20;;
5349;SDS011;2697;42.144;24.794;2023-09-18T14:44:08;7.50;;;2.77;;
5349;SDS011;2697;42.144;24.794;2023-09-18T14:46:35;4.40;;;2.90;;
5349;SDS011;2697;42.144;24.794;2023-09-18T14:49:05;3.13;;;2.47;;
5349;SDS011;2697;42.144;24.794;2023-09-18T14:51:35;4.93;;;2.90;;
5349;SDS011;2697;42.144;24.794;2023-09-18T14:54:01;10.23;;;3.00;;
5349;SDS011;2697;42.144;24.794;2023-09-18T14:56:29;5.10;;;2.57;;
5349;SDS011;2697;42.144;24.794;2023-09-18T14:58:54;4.10;;;2.80;;
5349;SDS011;2697;42.144;24.794;2023-09-18T15:01:20;4.87;;;3.53;;
5349;SDS011;2697;42.144;24.794;2023-09-18T15:03:46;3.43;;;2.80;;
5349;SDS011;2697;42.144;24.794;2023-09-18T15:06:13;11.63;;;5.57;;
5349;SDS011;2697;42.144;24.794;2023-09-18T15:08:39;23.17;;;3.57;;
5349;SDS011;2697;42.144;24.794;2023-09-18T15:11:05;12.43;;;2.87;;
5349;SDS011;2697;42.144;24.794;2023-09-18T15:13:31;8.93;;;3.47;;